sensor_id;sensor_type;location;lat;lon;timestamp;pressure;altitude;pressure_sealevel;temperature;humidity
46379;BME280;32084;42.254;22.744;2023-11-22T00:00:22;94448.13;;;8.96;91.81
46379;BME280;32084;42.254;22.744;2023-11-22T00:02:48;94448.47;;;9.01;91.16
46379;BME280;32084;42.254;22.744;2023-11-22T00:05:14;94459.44;;;9.06;91.34
46379;BME280;32084;42.254;22.744;2023-11-22T00:07:40;94449.44;;;9.00;92.23
46379;BME280;32084;42.254;22.744;2023-11-22T00:10:07;94444.47;;;8.81;92.48
46379;BME280;32084;42.254;22.744;2023-11-22T00:12:34;94443.94;;;8.85;92.32
46379;BME280;32084;42.254;22.744;2023-11-22T00:15:03;94441.59;;;8.98;91.67
46379;BME280;32084;42.254;22.744;2023-11-22T00:17:31;94448.63;;;8.99;91.69
46379;BME280;32084;42.254;22.744;2023-11-22T00:19:58;94450.09;;;9.02;91.63
46379;BME280;32084;42.254;22.744;2023-11-22T00:22:26;94446.09;;;9.14;91.26
46379;BME280;32084;42.254;22.744;2023-11-22T00:24:53;94444.78;;;8.94;92.77
46379;BME280;32084;42.254;22.744;2023-11-22T00:27:19;94434.78;;;8.96;93.13
46379;BME280;32084;42.254;22.744;2023-11-22T00:29:46;94444.09;;;9.08;92.87
46379;BME280;32084;42.254;22.744;2023-11-22T00:32:12;94439.09;;;8.97;93.18
46379;BME280;32084;42.254;22.744;2023-11-22T00:34:38;94433.13;;;8.95;93.27
46379;BME280;32084;42.254;22.744;2023-11-22T00:37:04;94434.09;;;9.02;93.22
46379;BME280;32084;42.254;22.744;2023-11-22T00:39:30;94436.09;;;9.08;92.67
46379;BME280;32084;42.254;22.744;2023-11-22T00:41:56;94436.22;;;9.23;91.89
46379;BME280;32084;42.254;22.744;2023-11-22T00:44:21;94439.75;;;9.15;93.38
46379;BME280;32084;42.254;22.744;2023-11-22T00:46:48;94440.44;;;8.93;94.67
46379;BME280;32084;42.254;22.744;2023-11-22T00:49:14;94429.44;;;8.88;94.98
46379;BME280;32084;42.254;22.744;2023-11-22T00:51:40;94434.47;;;8.83;95.14
46379;BME280;32084;42.254;22.744;2023-11-22T00:54:06;94426.78;;;8.96;94.42
46379;BME280;32084;42.254;22.744;2023-11-22T00:56:32;94429.47;;;8.96;94.32
46379;BME280;32084;42.254;22.744;2023-11-22T00:58:58;94422.13;;;8.98;94.31
46379;BME280;32084;42.254;22.744;2023-11-22T01:01:25;94418.59;;;9.06;93.71
46379;BME280;32084;42.254;22.744;2023-11-22T01:04:11;94420.13;;;9.00;94.40
46379;BME280;32084;42.254;22.744;2023-11-22T01:06:37;94415.47;;;8.94;95.18
46379;BME280;32084;42.254;22.744;2023-11-22T01:09:03;94412.97;;;8.92;94.94
46379;BME280;32084;42.254;22.744;2023-11-22T01:11:29;94421.47;;;8.96;94.66
46379;BME280;32084;42.254;22.744;2023-11-22T01:13:55;94422.25;;;9.05;94.09
46379;BME280;32084;42.254;22.744;2023-11-22T01:16:22;94426.59;;;9.14;93.74
46379;BME280;32084;42.254;22.744;2023-11-22T01:18:48;94423.06;;;9.22;93.48
46379;BME280;32084;42.254;22.744;2023-11-22T01:21:14;94417.22;;;9.18;93.67
46379;BME280;32084;42.254;22.744;2023-11-22T01:23:40;94410.78;;;9.04;94.60
46379;BME280;32084;42.254;22.744;2023-11-22T01:26:06;94397.78;;;8.93;95.40
46379;BME280;32084;42.254;22.744;2023-11-22T01:28:32;94403.78;;;9.03;94.48
46379;BME280;32084;42.254;22.744;2023-11-22T01:31:01;94401.28;;;9.02;94.33
46379;BME280;32084;42.254;22.744;2023-11-22T01:33:28;94397.09;;;8.99;94.84
46379;BME280;32084;42.254;22.744;2023-11-22T01:35:54;94392.47;;;9.01;95.24
46379;BME280;32084;42.254;22.744;2023-11-22T01:38:20;94390.13;;;8.98;95.24
46379;BME280;32084;42.254;22.744;2023-11-22T01:40:47;94394.13;;;9.02;95.05
46379;BME280;32084;42.254;22.744;2023-11-22T01:43:19;94387.28;;;8.91;95.31
46379;BME280;32084;42.254;22.744;2023-11-22T01:45:46;94372.84;;;8.77;96.66
46379;BME280;32084;42.254;22.744;2023-11-22T01:48:12;94369.84;;;8.81;96.39
46379;BME280;32084;42.254;22.744;2023-11-22T01:50:38;94379.00;;;8.86;96.42
46379;BME280;32084;42.254;22.744;2023-11-22T01:53:08;94382.31;;;8.80;97.08
46379;BME280;32084;42.254;22.744;2023-11-22T01:55:36;94394.97;;;8.78;97.44
46379;BME280;32084;42.254;22.744;2023-11-22T01:58:02;94380.31;;;8.74;97.15
46379;BME280;32084;42.254;22.744;2023-11-22T02:00:32;94377.53;;;8.67;98.20
46379;BME280;32084;42.254;22.744;2023-11-22T02:02:58;94367.66;;;8.76;97.40
46379;BME280;32084;42.254;22.744;2023-11-22T02:05:25;94371.97;;;8.85;96.83
46379;BME280;32084;42.254;22.744;2023-11-22T02:07:51;94365.31;;;8.89;96.63
46379;BME280;32084;42.254;22.744;2023-11-22T02:10:18;94361.66;;;8.74;98.81
46379;BME280;32084;42.254;22.744;2023-11-22T02:12:44;94351.66;;;8.76;98.49
46379;BME280;32084;42.254;22.744;2023-11-22T02:15:10;94355.66;;;8.80;98.17
46379;BME280;32084;42.254;22.744;2023-11-22T02:17:37;94358.31;;;8.80;98.14
46379;BME280;32084;42.254;22.744;2023-11-22T02:20:03;94349.38;;;8.73;99.16
46379;BME280;32084;42.254;22.744;2023-11-22T02:22:42;94343.34;;;8.79;98.24
46379;BME280;32084;42.254;22.744;2023-11-22T02:25:08;94352.13;;;8.88;97.70
46379;BME280;32084;42.254;22.744;2023-11-22T02:27:35;94351.31;;;8.87;97.45
46379;BME280;32084;42.254;22.744;2023-11-22T02:30:03;94355.97;;;8.93;97.17
46379;BME280;32084;42.254;22.744;2023-11-22T02:32:32;94352.81;;;8.90;97.13
46379;BME280;32084;42.254;22.744;2023-11-22T02:34:59;94358.31;;;8.88;98.21
46379;BME280;32084;42.254;22.744;2023-11-22T02:37:25;94359.81;;;8.91;97.74
46379;BME280;32084;42.254;22.744;2023-11-22T02:39:55;94358.47;;;8.95;97.49
46379;BME280;32084;42.254;22.744;2023-11-22T02:42:24;94353.97;;;8.87;99.00
46379;BME280;32084;42.254;22.744;2023-11-22T02:44:50;94357.47;;;8.88;98.57
46379;BME280;32084;42.254;22.744;2023-11-22T02:47:16;94362.47;;;8.91;98.15
46379;BME280;32084;42.254;22.744;2023-11-22T02:49:42;94359.00;;;8.90;97.84
46379;BME280;32084;42.254;22.744;2023-11-22T02:52:08;94368.50;;;8.85;98.60
46379;BME280;32084;42.254;22.744;2023-11-22T02:54:34;94361.03;;;8.64;99.51
46379;BME280;32084;42.254;22.744;2023-11-22T02:56:59;94352.88;;;8.49;99.51
46379;BME280;32084;42.254;22.744;2023-11-22T02:59:26;94356.53;;;8.56;99.53
46379;BME280;32084;42.254;22.744;2023-11-22T03:01:52;94364.19;;;8.67;99.84
46379;BME280;32084;42.254;22.744;2023-11-22T03:04:18;94371.19;;;8.76;99.03
46379;BME280;32084;42.254;22.744;2023-11-22T03:06:44;94362.34;;;8.68;99.93
46379;BME280;32084;42.254;22.744;2023-11-22T03:09:10;94370.84;;;8.63;100.00
46379;BME280;32084;42.254;22.744;2023-11-22T03:11:35;94367.19;;;8.64;100.00
46379;BME280;32084;42.254;22.744;2023-11-22T03:14:02;94363.88;;;8.54;100.00
46379;BME280;32084;42.254;22.744;2023-11-22T03:16:29;94363.34;;;8.67;100.00
46379;BME280;32084;42.254;22.744;2023-11-22T03:18:55;94366.84;;;8.67;100.00
46379;BME280;32084;42.254;22.744;2023-11-22T03:21:23;94367.19;;;8.81;99.77
46379;BME280;32084;42.254;22.744;2023-11-22T03:23:53;94383.47;;;8.94;99.79
46379;BME280;32084;42.254;22.744;2023-11-22T03:26:19;94386.13;;;9.02;99.24
46379;BME280;32084;42.254;22.744;2023-11-22T03:28:45;94383.78;;;9.07;99.00
46379;BME280;32084;42.254;22.744;2023-11-22T03:31:11;94387.94;;;8.93;100.00
46379;BME280;32084;42.254;22.744;2023-11-22T03:33:37;94388.16;;;8.92;100.00
46379;BME280;32084;42.254;22.744;2023-11-22T03:36:03;94394.13;;;9.02;100.00
46379;BME280;32084;42.254;22.744;2023-11-22T03:38:30;94380.16;;;8.92;100.00
46379;BME280;32084;42.254;22.744;2023-11-22T03:40:56;94371.13;;;8.93;100.00
46379;BME280;32084;42.254;22.744;2023-11-22T03:43:22;94380.59;;;9.12;100.00
46379;BME280;32084;42.254;22.744;2023-11-22T03:45:48;94370.38;;;9.32;99.78
46379;BME280;32084;42.254;22.744;2023-11-22T03:48:14;94369.34;;;9.41;98.26
46379;BME280;32084;42.254;22.744;2023-11-22T03:50:40;94379.31;;;9.47;97.72
46379;BME280;32084;42.254;22.744;2023-11-22T03:53:06;94379.16;;;9.41;98.40
46379;BME280;32084;42.254;22.744;2023-11-22T03:55:32;94380.88;;;9.25;100.00
46379;BME280;32084;42.254;22.744;2023-11-22T03:57:58;94375.63;;;9.01;100.00
46379;BME280;32084;42.254;22.744;2023-11-22T04:00:24;94377.66;;;8.90;100.00
46379;BME280;32084;42.254;22.744;2023-11-22T04:02:50;94381.78;;;8.93;100.00
46379;BME280;32084;42.254;22.744;2023-11-22T04:05:16;94379.28;;;8.91;100.00
46379;BME280;32084;42.254;22.744;2023-11-22T04:07:42;94395.25;;;9.08;100.00
46379;BME280;32084;42.254;22.744;2023-11-22T04:10:08;94392.75;;;9.06;100.00
46379;BME280;32084;42.254;22.744;2023-11-22T04:12:34;94410.09;;;9.10;100.00
46379;BME280;32084;42.254;22.744;2023-11-22T04:15:00;94409.41;;;9.08;100.00
46379;BME280;32084;42.254;22.744;2023-11-22T04:17:26;94402.63;;;8.89;100.00
46379;BME280;32084;42.254;22.744;2023-11-22T04:19:52;94407.47;;;8.86;100.00
46379;BME280;32084;42.254;22.744;2023-11-22T04:22:18;94403.31;;;8.83;100.00
46379;BME280;32084;42.254;22.744;2023-11-22T04:24:44;94401.94;;;9.04;100.00
46379;BME280;32084;42.254;22.744;2023-11-22T04:27:11;94410.09;;;9.18;100.00
46379;BME280;32084;42.254;22.744;2023-11-22T04:29:37;94417.22;;;9.26;100.00
46379;BME280;32084;42.254;22.744;2023-11-22T04:32:03;94422.72;;;9.25;100.00
46379;BME280;32084;42.254;22.744;2023-11-22T04:34:29;94420.41;;;9.13;100.00
46379;BME280;32084;42.254;22.744;2023-11-22T04:36:55;94422.63;;;9.02;100.00
46379;BME280;32084;42.254;22.744;2023-11-22T04:39:22;94424.50;;;8.76;100.00
46379;BME280;32084;42.254;22.744;2023-11-22T04:41:48;94425.13;;;8.70;100.00
46379;BME280;32084;42.254;22.744;2023-11-22T04:44:14;94415.47;;;8.77;100.00
46379;BME280;32084;42.254;22.744;2023-11-22T04:46:40;94431.78;;;8.91;100.00
46379;BME280;32084;42.254;22.744;2023-11-22T04:49:06;94432.13;;;8.88;100.00
46379;BME280;32084;42.254;22.744;2023-11-22T04:51:33;94440.31;;;8.86;100.00
46379;BME280;32084;42.254;22.744;2023-11-22T04:54:00;94442.78;;;8.88;100.00
46379;BME280;32084;42.254;22.744;2023-11-22T04:56:26;94444.63;;;8.95;100.00
46379;BME280;32084;42.254;22.744;2023-11-22T04:58:52;94445.63;;;8.94;100.00
46379;BME280;32084;42.254;22.744;2023-11-22T05:01:18;94441.47;;;8.75;100.00
46379;BME280;32084;42.254;22.744;2023-11-22T05:03:44;94453.28;;;8.81;100.00
46379;BME280;32084;42.254;22.744;2023-11-22T05:06:10;94451.63;;;8.80;100.00
46379;BME280;32084;42.254;22.744;2023-11-22T05:08:36;94453.97;;;8.83;100.00
46379;BME280;32084;42.254;22.744;2023-11-22T05:11:02;94452.63;;;8.87;100.00
46379;BME280;32084;42.254;22.744;2023-11-22T05:13:28;94456.63;;;8.83;100.00
46379;BME280;32084;42.254;22.744;2023-11-22T05:15:55;94471.28;;;8.95;100.00
46379;BME280;32084;42.254;22.744;2023-11-22T05:18:21;94473.44;;;9.00;100.00
46379;BME280;32084;42.254;22.744;2023-11-22T05:20:47;94467.28;;;8.83;100.00
46379;BME280;32084;42.254;22.744;2023-11-22T05:23:14;94488.59;;;8.67;100.00
46379;BME280;32084;42.254;22.744;2023-11-22T05:25:40;94482.63;;;8.73;100.00
46379;BME280;32084;42.254;22.744;2023-11-22T05:28:06;94485.59;;;8.78;100.00
46379;BME280;32084;42.254;22.744;2023-11-22T05:30:32;94481.78;;;8.89;100.00
46379;BME280;32084;42.254;22.744;2023-11-22T05:32:58;94489.28;;;9.02;100.00
46379;BME280;32084;42.254;22.744;2023-11-22T05:35:24;94491.09;;;9.09;100.00
46379;BME280;32084;42.254;22.744;2023-11-22T05:37:50;94498.75;;;9.12;100.00
46379;BME280;32084;42.254;22.744;2023-11-22T05:40:16;94500.94;;;9.01;100.00
46379;BME280;32084;42.254;22.744;2023-11-22T05:42:42;94514.09;;;9.02;100.00
46379;BME280;32084;42.254;22.744;2023-11-22T05:45:08;94508.75;;;9.10;100.00
46379;BME280;32084;42.254;22.744;2023-11-22T05:47:34;94502.59;;;8.93;100.00
46379;BME280;32084;42.254;22.744;2023-11-22T05:50:00;94499.59;;;8.80;100.00
46379;BME280;32084;42.254;22.744;2023-11-22T05:52:26;94504.09;;;8.96;100.00
46379;BME280;32084;42.254;22.744;2023-11-22T05:54:52;94494.63;;;9.02;100.00
46379;BME280;32084;42.254;22.744;2023-11-22T05:57:18;94492.09;;;8.84;100.00
46379;BME280;32084;42.254;22.744;2023-11-22T05:59:45;94505.59;;;8.98;100.00
46379;BME280;32084;42.254;22.744;2023-11-22T06:02:12;94509.25;;;9.14;100.00
46379;BME280;32084;42.254;22.744;2023-11-22T06:04:38;94506.41;;;9.32;100.00
46379;BME280;32084;42.254;22.744;2023-11-22T06:07:04;94516.06;;;9.33;100.00
46379;BME280;32084;42.254;22.744;2023-11-22T06:09:30;94521.41;;;9.33;100.00
46379;BME280;32084;42.254;22.744;2023-11-22T06:11:56;94519.75;;;9.32;100.00
46379;BME280;32084;42.254;22.744;2023-11-22T06:14:22;94520.91;;;9.29;100.00
46379;BME280;32084;42.254;22.744;2023-11-22T06:16:48;94534.09;;;9.31;100.00
46379;BME280;32084;42.254;22.744;2023-11-22T06:19:14;94540.44;;;9.30;100.00
46379;BME280;32084;42.254;22.744;2023-11-22T06:21:40;94543.06;;;9.46;100.00
46379;BME280;32084;42.254;22.744;2023-11-22T06:24:06;94542.88;;;9.56;100.00
46379;BME280;32084;42.254;22.744;2023-11-22T06:26:34;94547.06;;;9.58;100.00
46379;BME280;32084;42.254;22.744;2023-11-22T06:29:00;94545.06;;;9.52;100.00
46379;BME280;32084;42.254;22.744;2023-11-22T06:31:26;94545.38;;;9.57;100.00
46379;BME280;32084;42.254;22.744;2023-11-22T06:33:53;94555.41;;;9.64;100.00
46379;BME280;32084;42.254;22.744;2023-11-22T06:36:19;94561.22;;;9.59;100.00
46379;BME280;32084;42.254;22.744;2023-11-22T06:38:45;94562.56;;;9.55;100.00
46379;BME280;32084;42.254;22.744;2023-11-22T06:41:12;94569.91;;;9.53;100.00
46379;BME280;32084;42.254;22.744;2023-11-22T06:43:38;94567.06;;;9.63;100.00
46379;BME280;32084;42.254;22.744;2023-11-22T06:46:04;94572.53;;;9.69;100.00
46379;BME280;32084;42.254;22.744;2023-11-22T06:48:32;94581.91;;;9.73;100.00
46379;BME280;32084;42.254;22.744;2023-11-22T06:50:58;94580.69;;;9.84;100.00
46379;BME280;32084;42.254;22.744;2023-11-22T06:53:24;94592.19;;;9.93;99.50
46379;BME280;32084;42.254;22.744;2023-11-22T06:55:51;94592.53;;;9.90;99.79
46379;BME280;32084;42.254;22.744;2023-11-22T06:58:17;94596.41;;;9.79;100.00
46379;BME280;32084;42.254;22.744;2023-11-22T07:00:43;94592.06;;;9.78;100.00
46379;BME280;32084;42.254;22.744;2023-11-22T07:03:10;94590.22;;;9.78;100.00
46379;BME280;32084;42.254;22.744;2023-11-22T07:05:36;94584.53;;;9.82;100.00
46379;BME280;32084;42.254;22.744;2023-11-22T07:08:02;94576.69;;;9.80;100.00
46379;BME280;32084;42.254;22.744;2023-11-22T07:10:29;94582.53;;;9.84;100.00
46379;BME280;32084;42.254;22.744;2023-11-22T07:13:00;94582.34;;;9.93;100.00
46379;BME280;32084;42.254;22.744;2023-11-22T07:15:27;94598.69;;;9.99;100.00
46379;BME280;32084;42.254;22.744;2023-11-22T07:17:53;94599.72;;;9.89;100.00
46379;BME280;32084;42.254;22.744;2023-11-22T07:20:20;94594.34;;;9.97;100.00
46379;BME280;32084;42.254;22.744;2023-11-22T07:22:46;94595.81;;;10.08;100.00
46379;BME280;32084;42.254;22.744;2023-11-22T07:25:12;94603.31;;;10.13;100.00
46379;BME280;32084;42.254;22.744;2023-11-22T07:27:45;94615.13;;;10.27;100.00
46379;BME280;32084;42.254;22.744;2023-11-22T07:30:12;94615.31;;;10.25;100.00
46379;BME280;32084;42.254;22.744;2023-11-22T07:32:39;94614.13;;;10.36;99.99
46379;BME280;32084;42.254;22.744;2023-11-22T07:35:06;94610.91;;;10.49;100.00
46379;BME280;32084;42.254;22.744;2023-11-22T07:37:34;94613.56;;;10.57;100.00
46379;BME280;32084;42.254;22.744;2023-11-22T07:40:01;94607.56;;;10.55;100.00
46379;BME280;32084;42.254;22.744;2023-11-22T07:42:30;94610.13;;;10.71;99.77
46379;BME280;32084;42.254;22.744;2023-11-22T07:44:56;94612.41;;;10.83;98.27
46379;BME280;32084;42.254;22.744;2023-11-22T07:47:22;94618.06;;;10.88;98.20
46379;BME280;32084;42.254;22.744;2023-11-22T07:49:53;94624.22;;;10.97;99.04
46379;BME280;32084;42.254;22.744;2023-11-22T07:52:21;94622.97;;;11.07;100.00
46379;BME280;32084;42.254;22.744;2023-11-22T07:54:47;94621.31;;;11.06;99.62
46379;BME280;32084;42.254;22.744;2023-11-22T07:57:13;94618.16;;;11.03;98.83
46379;BME280;32084;42.254;22.744;2023-11-22T07:59:39;94620.94;;;11.09;98.20
46379;BME280;32084;42.254;22.744;2023-11-22T08:02:05;94623.28;;;11.12;97.58
46379;BME280;32084;42.254;22.744;2023-11-22T08:04:37;94627.06;;;11.18;97.18
46379;BME280;32084;42.254;22.744;2023-11-22T08:07:03;94620.69;;;11.19;97.27
46379;BME280;32084;42.254;22.744;2023-11-22T08:09:30;94633.88;;;11.29;96.30
46379;BME280;32084;42.254;22.744;2023-11-22T08:11:58;94632.13;;;11.36;95.90
46379;BME280;32084;42.254;22.744;2023-11-22T08:14:26;94625.34;;;11.48;96.63
46379;BME280;32084;42.254;22.744;2023-11-22T08:16:53;94628.97;;;11.56;95.61
46379;BME280;32084;42.254;22.744;2023-11-22T08:19:19;94634.44;;;11.62;95.39
46379;BME280;32084;42.254;22.744;2023-11-22T08:21:46;94634.84;;;11.74;94.01
46379;BME280;32084;42.254;22.744;2023-11-22T08:24:11;94634.31;;;11.79;93.30
46379;BME280;32084;42.254;22.744;2023-11-22T08:26:38;94634.41;;;11.85;91.97
46379;BME280;32084;42.254;22.744;2023-11-22T08:29:04;94642.88;;;11.97;91.56
46379;BME280;32084;42.254;22.744;2023-11-22T08:31:30;94633.06;;;12.04;90.57
46379;BME280;32084;42.254;22.744;2023-11-22T08:33:56;94638.09;;;12.07;89.97
46379;BME280;32084;42.254;22.744;2023-11-22T08:36:22;94639.56;;;12.10;90.50
46379;BME280;32084;42.254;22.744;2023-11-22T08:38:49;94640.41;;;12.10;90.75
46379;BME280;32084;42.254;22.744;2023-11-22T08:41:19;94643.09;;;12.10;90.11
46379;BME280;32084;42.254;22.744;2023-11-22T08:43:45;94641.88;;;12.13;89.44
46379;BME280;32084;42.254;22.744;2023-11-22T08:46:13;94642.53;;;12.15;90.48
46379;BME280;32084;42.254;22.744;2023-11-22T08:48:40;94643.00;;;12.19;89.35
46379;BME280;32084;42.254;22.744;2023-11-22T08:51:08;94640.97;;;12.21;90.17
46379;BME280;32084;42.254;22.744;2023-11-22T08:53:35;94654.72;;;12.18;91.40
46379;BME280;32084;42.254;22.744;2023-11-22T08:56:02;94658.59;;;12.15;92.71
46379;BME280;32084;42.254;22.744;2023-11-22T08:58:32;94660.81;;;12.11;92.20
46379;BME280;32084;42.254;22.744;2023-11-22T09:00:59;94658.03;;;12.05;93.01
46379;BME280;32084;42.254;22.744;2023-11-22T09:03:26;94656.38;;;12.04;92.85
46379;BME280;32084;42.254;22.744;2023-11-22T09:05:55;94663.59;;;12.03;93.14
46379;BME280;32084;42.254;22.744;2023-11-22T09:08:21;94672.53;;;11.96;93.12
46379;BME280;32084;42.254;22.744;2023-11-22T09:10:47;94677.25;;;11.94;93.27
46379;BME280;32084;42.254;22.744;2023-11-22T09:13:13;94674.72;;;11.92;93.00
46379;BME280;32084;42.254;22.744;2023-11-22T09:15:45;94660.69;;;11.90;92.86
46379;BME280;32084;42.254;22.744;2023-11-22T09:18:11;94663.75;;;11.79;93.51
46379;BME280;32084;42.254;22.744;2023-11-22T09:20:38;94666.63;;;11.77;93.64
46379;BME280;32084;42.254;22.744;2023-11-22T09:23:04;94669.44;;;11.84;92.96
46379;BME280;32084;42.254;22.744;2023-11-22T09:25:30;94680.25;;;11.90;92.17
46379;BME280;32084;42.254;22.744;2023-11-22T09:27:57;94670.19;;;11.93;92.19
46379;BME280;32084;42.254;22.744;2023-11-22T09:30:27;94666.34;;;11.95;91.79
46379;BME280;32084;42.254;22.744;2023-11-22T09:33:08;94662.06;;;12.01;91.83
46379;BME280;32084;42.254;22.744;2023-11-22T09:35:35;94673.75;;;12.08;91.48
46379;BME280;32084;42.254;22.744;2023-11-22T09:38:02;94671.34;;;12.13;92.35
46379;BME280;32084;42.254;22.744;2023-11-22T09:40:28;94670.63;;;12.19;91.46
46379;BME280;32084;42.254;22.744;2023-11-22T09:43:02;94666.94;;;12.20;90.88
46379;BME280;32084;42.254;22.744;2023-11-22T09:45:28;94662.50;;;12.27;91.00
46379;BME280;32084;42.254;22.744;2023-11-22T09:47:57;94664.72;;;12.24;91.32
46379;BME280;32084;42.254;22.744;2023-11-22T09:50:25;94657.69;;;12.23;90.56
46379;BME280;32084;42.254;22.744;2023-11-22T09:52:52;94667.75;;;12.21;91.51
46379;BME280;32084;42.254;22.744;2023-11-22T09:55:21;94663.69;;;12.25;90.56
46379;BME280;32084;42.254;22.744;2023-11-22T09:57:51;94655.75;;;12.32;90.80
46379;BME280;32084;42.254;22.744;2023-11-22T10:00:19;94652.06;;;12.33;90.76
46379;BME280;32084;42.254;22.744;2023-11-22T10:02:47;94649.38;;;12.33;90.53
46379;BME280;32084;42.254;22.744;2023-11-22T10:05:13;94660.38;;;12.38;90.08
46379;BME280;32084;42.254;22.744;2023-11-22T10:07:39;94654.91;;;12.46;89.97
46379;BME280;32084;42.254;22.744;2023-11-22T10:10:05;94655.38;;;12.49;90.40
46379;BME280;32084;42.254;22.744;2023-11-22T10:12:32;94656.13;;;12.58;89.66
46379;BME280;32084;42.254;22.744;2023-11-22T10:18:23;94651.94;;;12.70;88.76
46379;BME280;32084;42.254;22.744;2023-11-22T10:20:50;94665.75;;;12.67;88.69
46379;BME280;32084;42.254;22.744;2023-11-22T10:23:16;94668.16;;;12.62;89.02
46379;BME280;32084;42.254;22.744;2023-11-22T10:25:43;94670.72;;;12.70;88.93
46379;BME280;32084;42.254;22.744;2023-11-22T10:28:10;94668.69;;;12.73;89.16
46379;BME280;32084;42.254;22.744;2023-11-22T10:30:36;94673.41;;;12.70;89.12
46379;BME280;32084;42.254;22.744;2023-11-22T10:33:04;94666.41;;;12.69;89.88
46379;BME280;32084;42.254;22.744;2023-11-22T10:35:30;94671.75;;;12.69;90.35
46379;BME280;32084;42.254;22.744;2023-11-22T10:37:56;94667.69;;;12.74;90.51
46379;BME280;32084;42.254;22.744;2023-11-22T10:40:24;94668.22;;;12.84;90.00
46379;BME280;32084;42.254;22.744;2023-11-22T10:42:50;94669.31;;;12.89;88.80
46379;BME280;32084;42.254;22.744;2023-11-22T10:45:18;94661.38;;;12.96;87.90
46379;BME280;32084;42.254;22.744;2023-11-22T10:47:45;94667.66;;;13.03;87.52
46379;BME280;32084;42.254;22.744;2023-11-22T10:50:11;94661.84;;;13.00;87.54
46379;BME280;32084;42.254;22.744;2023-11-22T10:52:40;94652.84;;;13.07;86.46
46379;BME280;32084;42.254;22.744;2023-11-22T10:55:06;94657.31;;;13.22;86.60
46379;BME280;32084;42.254;22.744;2023-11-22T10:57:35;94675.47;;;13.20;86.71
46379;BME280;32084;42.254;22.744;2023-11-22T11:00:03;94681.25;;;13.17;85.73
46379;BME280;32084;42.254;22.744;2023-11-22T11:02:35;94686.16;;;13.13;85.80
46379;BME280;32084;42.254;22.744;2023-11-22T11:05:04;94677.00;;;13.07;87.55
46379;BME280;32084;42.254;22.744;2023-11-22T11:07:39;94673.97;;;12.96;86.45
46379;BME280;32084;42.254;22.744;2023-11-22T11:10:07;94672.38;;;13.01;87.20
46379;BME280;32084;42.254;22.744;2023-11-22T11:12:33;94674.84;;;13.03;87.32
46379;BME280;32084;42.254;22.744;2023-11-22T11:14:59;94670.78;;;13.07;87.60
46379;BME280;32084;42.254;22.744;2023-11-22T11:17:26;94666.13;;;13.16;87.01
46379;BME280;32084;42.254;22.744;2023-11-22T11:19:52;94669.72;;;13.23;86.02
46379;BME280;32084;42.254;22.744;2023-11-22T11:22:18;94672.69;;;13.28;85.55
46379;BME280;32084;42.254;22.744;2023-11-22T11:24:46;94670.47;;;13.32;84.92
46379;BME280;32084;42.254;22.744;2023-11-22T11:27:13;94675.47;;;13.35;85.08
46379;BME280;32084;42.254;22.744;2023-11-22T11:29:40;94680.66;;;13.36;84.76
46379;BME280;32084;42.254;22.744;2023-11-22T11:32:11;94686.66;;;13.38;86.00
46379;BME280;32084;42.254;22.744;2023-11-22T11:34:48;94683.41;;;13.43;85.21
46379;BME280;32084;42.254;22.744;2023-11-22T11:37:17;94690.13;;;13.54;84.17
46379;BME280;32084;42.254;22.744;2023-11-22T11:39:43;94684.84;;;13.60;83.78
46379;BME280;32084;42.254;22.744;2023-11-22T11:42:10;94689.00;;;13.63;82.92
46379;BME280;32084;42.254;22.744;2023-11-22T11:44:36;94685.03;;;13.59;81.69
46379;BME280;32084;42.254;22.744;2023-11-22T11:47:09;94683.75;;;13.55;82.90
46379;BME280;32084;42.254;22.744;2023-11-22T11:49:36;94688.47;;;13.53;81.30
46379;BME280;32084;42.254;22.744;2023-11-22T11:52:02;94683.66;;;13.48;82.69
46379;BME280;32084;42.254;22.744;2023-11-22T11:54:29;94684.75;;;13.54;82.69
46379;BME280;32084;42.254;22.744;2023-11-22T11:56:59;94684.38;;;13.57;82.42
46379;BME280;32084;42.254;22.744;2023-11-22T11:59:25;94669.56;;;13.61;82.94
46379;BME280;32084;42.254;22.744;2023-11-22T12:01:54;94676.84;;;13.67;82.62
46379;BME280;32084;42.254;22.744;2023-11-22T12:04:24;94679.16;;;13.70;82.28
46379;BME280;32084;42.254;22.744;2023-11-22T12:06:50;94678.38;;;13.76;82.43
46379;BME280;32084;42.254;22.744;2023-11-22T12:09:26;94677.59;;;13.82;82.44
46379;BME280;32084;42.254;22.744;2023-11-22T12:11:53;94680.53;;;13.88;82.38
46379;BME280;32084;42.254;22.744;2023-11-22T12:14:19;94671.69;;;13.94;82.26
46379;BME280;32084;42.254;22.744;2023-11-22T12:16:46;94662.22;;;13.98;82.15
46379;BME280;32084;42.254;22.744;2023-11-22T12:19:23;94672.41;;;14.02;81.27
46379;BME280;32084;42.254;22.744;2023-11-22T12:21:50;94673.03;;;14.04;79.97
46379;BME280;32084;42.254;22.744;2023-11-22T12:24:16;94668.63;;;13.97;79.41
46379;BME280;32084;42.254;22.744;2023-11-22T12:26:48;94667.47;;;14.06;79.83
46379;BME280;32084;42.254;22.744;2023-11-22T12:29:15;94678.41;;;14.04;79.78
46379;BME280;32084;42.254;22.744;2023-11-22T12:31:44;94684.53;;;14.20;79.93
46379;BME280;32084;42.254;22.744;2023-11-22T12:34:13;94682.59;;;14.35;81.16
46379;BME280;32084;42.254;22.744;2023-11-22T12:36:40;94679.09;;;14.41;79.68
46379;BME280;32084;42.254;22.744;2023-11-22T12:39:07;94681.34;;;14.38;80.23
46379;BME280;32084;42.254;22.744;2023-11-22T12:41:34;94688.69;;;14.22;80.81
46379;BME280;32084;42.254;22.744;2023-11-22T12:44:06;94687.41;;;14.18;81.16
46379;BME280;32084;42.254;22.744;2023-11-22T12:46:45;94697.16;;;14.19;81.63
46379;BME280;32084;42.254;22.744;2023-11-22T12:49:15;94704.53;;;14.11;82.87
46379;BME280;32084;42.254;22.744;2023-11-22T12:51:48;94708.19;;;14.03;83.33
46379;BME280;32084;42.254;22.744;2023-11-22T12:54:15;94716.59;;;14.00;83.21